createdAt,value
2019-01-04T00:00:46.506Z,82.06
2019-01-04T00:01:46.488Z,82.26
2019-01-04T00:02:46.481Z,82.37
2019-01-04T00:03:46.483Z,82.16
2019-01-04T00:04:46.456Z,82.06
2019-01-04T00:05:46.446Z,82.26
2019-01-04T00:06:46.442Z,81.85
2019-01-04T00:07:46.426Z,81.63
2019-01-04T00:08:46.431Z,81.74
2019-01-04T00:09:46.399Z,81.70
2019-01-04T00:10:46.387Z,82.12
2019-01-04T00:11:46.385Z,82.12
2019-01-04T00:12:46.367Z,81.95
2019-01-04T00:13:46.389Z,81.49
2019-01-04T00:14:46.346Z,81.60
2019-01-04T00:15:46.335Z,81.92
2019-01-04T00:16:46.326Z,81.18
2019-01-04T00:17:46.317Z,81.29
2019-01-04T00:18:46.460Z,80.87
2019-01-04T00:19:46.288Z,80.87
2019-01-04T00:20:46.283Z,80.97
2019-01-04T00:21:46.275Z,81.18
2019-01-04T00:22:46.260Z,81.39
2019-01-04T00:23:46.264Z,80.97
2019-01-04T00:24:46.238Z,81.60
2019-01-04T00:25:46.239Z,80.87
2019-01-04T00:26:46.217Z,81.07
2019-01-04T00:27:46.203Z,81.07
2019-01-04T00:28:46.231Z,81.07
2019-01-04T00:29:46.194Z,81.18
2019-01-04T00:30:46.176Z,81.39
2019-01-04T00:31:46.167Z,80.55
2019-01-04T00:32:46.145Z,81.07
2019-01-04T00:33:46.156Z,80.97
2019-01-04T00:34:46.125Z,80.97
2019-01-04T00:35:46.113Z,81.60
2019-01-04T00:36:46.109Z,81.07
2019-01-04T00:37:46.089Z,81.39
2019-01-04T00:38:46.115Z,80.76
2019-01-04T00:39:46.075Z,80.93
2019-01-04T00:40:46.056Z,81.29
2019-01-04T00:41:46.048Z,81.04
2019-01-04T00:42:46.038Z,80.45
2019-01-04T00:43:46.055Z,80.10
2019-01-04T00:44:46.026Z,79.89
2019-01-04T00:45:46.002Z,79.47
2019-01-04T00:46:46.005Z,79.47
2019-01-04T00:47:45.982Z,79.68
2019-01-04T00:48:45.972Z,79.58
2019-01-04T00:49:45.982Z,79.68
2019-01-04T00:50:45.941Z,79.89
2019-01-04T00:51:45.937Z,79.05
2019-01-04T00:52:45.929Z,79.16
2019-01-04T00:53:45.917Z,78.95
2019-01-04T00:54:45.919Z,78.95
2019-01-04T00:55:45.888Z,78.95
2019-01-04T00:56:45.881Z,79.05
2019-01-04T00:57:45.870Z,79.26
2019-01-04T00:58:45.877Z,78.95
2019-01-04T00:59:45.860Z,79.12
2019-01-04T01:00:45.846Z,79.12
2019-01-04T01:01:45.827Z,79.85
2019-01-04T01:02:45.815Z,79.02
2019-01-04T01:03:45.804Z,79.05
2019-01-04T01:04:45.806Z,78.32
2019-01-04T01:05:45.783Z,78.42
2019-01-04T01:06:45.765Z,77.80
2019-01-04T01:07:45.756Z,78.74
2019-01-04T01:08:45.746Z,78.42
2019-01-04T01:09:45.754Z,78.53
2019-01-04T01:10:45.722Z,78.32
2019-01-04T01:11:45.719Z,78.32
2019-01-04T01:12:45.700Z,78.53
2019-01-04T01:13:45.690Z,78.42
2019-01-04T01:14:45.990Z,77.76
2019-01-04T01:15:45.666Z,78.08
2019-01-04T01:16:45.663Z,78.42
2019-01-04T01:17:45.654Z,78.53
2019-01-04T01:18:45.638Z,78.70
2019-01-04T01:19:45.677Z,78.08
2019-01-04T01:20:45.609Z,78.01
2019-01-04T01:21:45.601Z,77.97
2019-01-04T01:22:45.596Z,78.22
2019-01-04T01:23:45.582Z,77.76
2019-01-04T01:24:45.577Z,78.28
2019-01-04T01:25:45.588Z,77.97
2019-01-04T01:26:45.561Z,77.34
2019-01-04T01:27:45.534Z,77.76
2019-01-04T01:28:45.524Z,77.55
2019-01-04T01:29:45.510Z,77.66
2019-01-04T01:30:45.525Z,76.93
2019-01-04T01:31:45.494Z,77.14
2019-01-04T01:32:45.494Z,77.03
2019-01-04T01:33:45.470Z,77.55
2019-01-04T01:34:45.464Z,77.34
2019-01-04T01:35:45.508Z,77.03
2019-01-04T01:36:45.440Z,77.14
2019-01-04T01:37:45.432Z,76.61
2019-01-04T01:38:45.416Z,76.30
2019-01-04T01:39:45.407Z,76.16
2019-01-04T01:40:45.415Z,76.40
2019-01-04T01:41:45.379Z,76.57
2019-01-04T01:42:45.368Z,76.51
2019-01-04T01:43:45.366Z,76.06
2019-01-04T01:44:45.354Z,76.40
2019-01-04T01:45:45.353Z,76.82
2019-01-04T01:46:45.327Z,76.47
2019-01-04T01:47:45.325Z,76.68
2019-01-04T01:48:45.304Z,77.00
2019-01-04T01:49:45.299Z,76.82
2019-01-04T01:50:45.303Z,77.51
2019-01-04T01:51:45.281Z,77.34
2019-01-04T01:52:45.258Z,77.31
2019-01-04T01:53:45.246Z,77.31
2019-01-04T01:54:45.244Z,77.51
2019-01-04T01:55:45.250Z,78.08
2019-01-04T01:56:45.219Z,78.49
2019-01-04T01:57:45.206Z,77.83
2019-01-04T01:58:45.193Z,78.04
2019-01-04T01:59:45.182Z,77.76
2019-01-04T02:00:45.188Z,77.73
2019-01-04T02:01:45.156Z,78.49
2019-01-04T02:02:45.147Z,78.70
2019-01-04T02:03:45.138Z,79.02
2019-01-04T02:04:45.132Z,78.56
2019-01-04T02:05:45.149Z,78.81
2019-01-04T02:06:45.108Z,79.29
2019-01-04T02:07:45.094Z,78.88
2019-01-04T02:08:45.082Z,79.08
2019-01-04T02:09:45.069Z,79.08
2019-01-04T02:10:45.062Z,78.98
2019-01-04T02:11:45.074Z,79.61
2019-01-04T02:12:45.046Z,79.40
2019-01-04T02:13:45.029Z,79.50
2019-01-04T02:14:45.015Z,79.29
2019-01-04T02:15:45.008Z,80.02
2019-01-04T02:16:45.028Z,79.71
2019-01-04T02:17:44.992Z,79.61
2019-01-04T02:18:44.977Z,80.55
2019-01-04T02:19:44.965Z,81.28
2019-01-04T02:20:44.944Z,80.69
2019-01-04T02:21:44.950Z,80.86
2019-01-04T02:22:44.927Z,80.76
2019-01-04T02:23:44.923Z,80.86
2019-01-04T02:24:44.904Z,80.55
2019-01-04T02:25:44.889Z,81.07
2019-01-04T02:26:44.897Z,80.96
2019-01-04T02:27:44.877Z,80.96
2019-01-04T02:28:44.857Z,81.42
2019-01-04T02:29:44.856Z,81.70
2019-01-04T02:30:44.835Z,82.78
2019-01-04T02:31:44.847Z,83.68
2019-01-04T02:32:44.815Z,83.58
2019-01-04T02:33:44.804Z,84.34
2019-01-04T02:34:44.797Z,84.41
2019-01-04T02:35:44.776Z,84.52
2019-01-04T02:36:44.789Z,85.35
2019-01-04T02:37:44.761Z,85.46
2019-01-04T02:38:44.749Z,85.67
2019-01-04T02:39:44.741Z,85.35
2019-01-04T02:40:44.732Z,86.82
2019-01-04T02:41:44.746Z,86.61
2019-01-04T02:42:44.704Z,86.71
2019-01-04T02:43:44.700Z,87.13
2019-01-04T02:44:44.684Z,86.92
2019-01-04T02:45:44.668Z,87.90
2019-01-04T02:46:44.674Z,87.86
2019-01-04T02:47:44.649Z,87.55
2019-01-04T02:48:44.635Z,88.42
2019-01-04T02:49:44.625Z,88.59
2019-01-04T02:50:44.644Z,88.80
2019-01-04T02:51:44.627Z,87.80
2019-01-04T02:52:44.600Z,88.28
2019-01-04T02:53:44.581Z,88.70
2019-01-04T02:54:44.573Z,89.01
2019-01-04T02:55:44.563Z,89.74
2019-01-04T02:56:44.577Z,89.64
2019-01-04T02:57:44.544Z,89.95
2019-01-04T02:58:44.533Z,89.68
2019-01-04T02:59:44.519Z,89.68
2019-01-04T03:00:44.505Z,89.89
2019-01-04T03:01:44.521Z,90.09
2019-01-04T03:02:44.481Z,90.16
2019-01-04T03:03:44.484Z,89.74
2019-01-04T03:04:44.462Z,89.84
2019-01-04T03:05:44.456Z,90.16
2019-01-04T03:06:44.438Z,89.43
2019-01-04T03:07:44.444Z,90.16
2019-01-04T03:08:44.414Z,89.89
2019-01-04T03:09:44.408Z,90.31
2019-01-04T03:10:44.396Z,90.26
2019-01-04T03:11:44.382Z,90.37
2019-01-04T03:12:44.389Z,90.68
2019-01-04T03:13:44.369Z,90.89
2019-01-04T03:14:44.352Z,90.72
2019-01-04T03:15:44.349Z,91.03
2019-01-04T03:16:44.326Z,91.31
2019-01-04T03:17:44.340Z,91.35
2019-01-04T03:18:44.308Z,90.72
2019-01-04T03:19:44.298Z,89.95
2019-01-04T03:20:44.287Z,90.41
2019-01-04T03:21:44.279Z,90.31
2019-01-04T03:22:44.289Z,90.68
2019-01-04T03:23:44.265Z,90.58
2019-01-04T03:24:44.242Z,91.20
2019-01-04T03:25:44.226Z,90.72
2019-01-04T03:26:44.219Z,91.03
2019-01-04T03:27:44.229Z,91.20
2019-01-04T03:28:44.196Z,91.00
2019-01-04T03:29:44.184Z,91.56
2019-01-04T03:30:44.183Z,91.31
2019-01-04T03:31:44.162Z,91.46
2019-01-04T03:32:44.177Z,91.52
2019-01-04T03:33:44.138Z,91.62
2019-01-04T03:34:44.128Z,91.56
2019-01-04T03:35:44.116Z,91.87
2019-01-04T03:36:44.110Z,91.77
2019-01-04T03:37:44.148Z,91.98
2019-01-04T03:38:44.093Z,92.08
2019-01-04T03:39:44.083Z,92.19
2019-01-04T03:40:44.077Z,91.66
2019-01-04T03:41:44.051Z,92.08
2019-01-04T03:42:44.060Z,91.77
2019-01-04T03:43:44.037Z,92.40
2019-01-04T03:44:44.028Z,92.60
2019-01-04T03:45:44.010Z,91.94
2019-01-04T03:46:43.996Z,91.72
2019-01-04T03:47:44.011Z,91.72
2019-01-04T03:48:43.978Z,91.77
2019-01-04T03:49:43.976Z,91.62
2019-01-04T03:50:43.953Z,91.98
2019-01-04T03:51:43.944Z,91.77
2019-01-04T03:52:43.956Z,92.60
2019-01-04T03:53:43.921Z,91.94
2019-01-04T03:54:43.919Z,91.94
2019-01-04T03:55:43.895Z,92.04
2019-01-04T03:56:43.885Z,92.04
2019-01-04T03:57:43.894Z,92.14
2019-01-04T03:58:43.863Z,92.19
2019-01-04T03:59:43.852Z,92.29
2019-01-04T04:00:43.845Z,92.19
2019-01-04T04:01:43.835Z,92.35
2019-01-04T04:02:43.850Z,91.98
2019-01-04T04:03:43.806Z,91.72
2019-01-04T04:04:43.800Z,91.62
2019-01-04T04:05:43.784Z,91.66
2019-01-04T04:06:43.783Z,91.83
2019-01-04T04:07:43.787Z,91.94
2019-01-04T04:08:43.757Z,91.62
2019-01-04T04:09:43.744Z,92.04
2019-01-04T04:10:43.737Z,92.04
2019-01-04T04:11:43.720Z,91.31
2019-01-04T04:12:43.734Z,91.03
2019-01-04T04:13:43.701Z,91.00
2019-01-04T04:14:43.683Z,91.35
2019-01-04T04:15:43.674Z,91.03
2019-01-04T04:16:43.662Z,91.41
2019-01-04T04:17:43.652Z,91.14
2019-01-04T04:18:43.656Z,91.56
2019-01-04T04:19:43.628Z,91.83
2019-01-04T04:20:43.620Z,91.83
2019-01-04T04:21:43.610Z,91.94
2019-01-04T04:22:43.596Z,92.04
2019-01-04T04:23:43.599Z,91.94
2019-01-04T04:24:43.570Z,91.94
2019-01-04T04:25:43.569Z,91.94
2019-01-04T04:26:43.558Z,92.04
2019-01-04T04:27:43.538Z,92.14
2019-01-04T04:28:43.552Z,92.46
2019-01-04T04:29:43.517Z,92.35
2019-01-04T04:30:43.508Z,92.46
2019-01-04T04:31:43.497Z,91.87
2019-01-04T04:32:43.486Z,91.62
2019-01-04T04:33:43.495Z,92.14
2019-01-04T04:34:43.460Z,92.14
2019-01-04T04:35:43.458Z,92.14
2019-01-04T04:36:43.442Z,92.08
2019-01-04T04:37:43.436Z,92.56
2019-01-04T04:38:43.453Z,92.25
2019-01-04T04:39:43.408Z,92.25
2019-01-04T04:40:43.400Z,91.72
2019-01-04T04:41:43.384Z,91.83
2019-01-04T04:42:43.370Z,92.77
2019-01-04T04:43:43.382Z,92.25
2019-01-04T04:44:43.364Z,92.25
2019-01-04T04:45:43.344Z,93.08
2019-01-04T04:46:43.338Z,92.66
2019-01-04T04:47:43.316Z,92.14
2019-01-04T04:48:43.325Z,92.35
2019-01-04T04:49:43.289Z,92.56
2019-01-04T04:50:43.285Z,92.66
2019-01-04T04:51:43.272Z,92.77
2019-01-04T04:52:43.265Z,92.77
2019-01-04T04:53:43.286Z,92.46
2019-01-04T04:54:43.238Z,92.04
2019-01-04T04:55:43.225Z,92.98
2019-01-04T04:56:43.215Z,92.56
2019-01-04T04:57:43.211Z,92.46
2019-01-04T04:58:43.207Z,92.66
2019-01-04T04:59:43.199Z,92.66
2019-01-04T05:00:43.172Z,92.19
2019-01-04T05:01:43.161Z,93.29
2019-01-04T05:02:43.151Z,93.19
2019-01-04T05:03:43.148Z,93.08
2019-01-04T05:04:43.155Z,92.52
2019-01-04T05:05:43.113Z,92.98
2019-01-04T05:06:43.107Z,92.56
2019-01-04T05:07:43.101Z,92.56
2019-01-04T05:08:43.087Z,92.56
2019-01-04T05:09:43.084Z,93.19
2019-01-04T05:10:43.059Z,93.61
2019-01-04T05:11:43.052Z,92.66
2019-01-04T05:12:43.045Z,92.88
2019-01-04T05:13:43.035Z,92.77
2019-01-04T05:14:43.041Z,92.56
2019-01-04T05:15:43.017Z,92.56
2019-01-04T05:16:42.995Z,93.33
2019-01-04T05:17:42.983Z,93.19
2019-01-04T05:18:42.980Z,92.77
2019-01-04T05:19:42.982Z,92.14
2019-01-04T05:20:42.952Z,92.77
2019-01-04T05:21:42.941Z,93.13
2019-01-04T05:22:42.937Z,92.66
2019-01-04T05:23:42.920Z,92.98
2019-01-04T05:24:42.928Z,92.88
2019-01-04T05:25:42.892Z,92.77
2019-01-04T05:26:42.887Z,92.66
2019-01-04T05:27:42.872Z,92.66
2019-01-04T05:28:42.862Z,92.46
2019-01-04T05:29:42.878Z,92.46
2019-01-04T05:30:42.843Z,92.66
2019-01-04T05:31:42.828Z,92.46
2019-01-04T05:32:42.827Z,92.77
2019-01-04T05:33:42.809Z,92.46
2019-01-04T05:34:42.834Z,92.66
2019-01-04T05:35:42.786Z,92.25
2019-01-04T05:36:42.771Z,92.66
2019-01-04T05:37:42.763Z,92.46
2019-01-04T05:38:42.763Z,92.77
2019-01-04T05:39:42.738Z,92.31
2019-01-04T05:40:42.747Z,91.72
2019-01-04T05:41:42.717Z,91.62
2019-01-04T05:42:42.710Z,91.94
2019-01-04T05:43:42.703Z,92.29
2019-01-04T05:44:42.682Z,92.35
2019-01-04T05:45:42.693Z,92.46
2019-01-04T05:46:42.660Z,92.60
2019-01-04T05:47:42.650Z,92.56
2019-01-04T05:48:42.678Z,92.35
2019-01-04T05:49:42.635Z,91.94
2019-01-04T05:50:42.644Z,92.00
2019-01-04T05:51:42.614Z,91.94
2019-01-04T05:52:42.598Z,90.85
2019-01-04T05:53:42.594Z,90.43
2019-01-04T05:54:42.573Z,90.12
2019-01-04T05:55:42.580Z,90.22
2019-01-04T05:56:42.549Z,90.01
2019-01-04T05:57:42.540Z,90.53
2019-01-04T05:58:42.531Z,90.64
2019-01-04T05:59:42.514Z,90.12
2019-01-04T06:00:42.529Z,91.16
2019-01-04T06:01:42.500Z,90.75
2019-01-04T06:02:42.484Z,90.53
2019-01-04T06:03:42.474Z,90.33
2019-01-04T06:04:42.462Z,90.95
2019-01-04T06:05:42.472Z,90.12
2019-01-04T06:06:42.441Z,90.01
2019-01-04T06:07:42.428Z,90.43
2019-01-04T06:08:42.468Z,90.33
2019-01-04T06:09:42.404Z,90.43
2019-01-04T06:10:42.410Z,90.12
2019-01-04T06:11:42.384Z,90.12
2019-01-04T06:12:42.382Z,89.97
2019-01-04T06:13:42.361Z,90.33
2019-01-04T06:14:42.348Z,89.87
2019-01-04T06:15:42.401Z,90.08
2019-01-04T06:16:42.329Z,89.70
2019-01-04T06:17:42.318Z,89.59
2019-01-04T06:18:42.311Z,90.12
2019-01-04T06:19:42.292Z,89.91
2019-01-04T06:20:42.322Z,90.12
2019-01-04T06:21:42.276Z,90.22
2019-01-04T06:22:42.262Z,89.87
2019-01-04T06:23:42.263Z,90.22
2019-01-04T06:24:42.255Z,89.70
2019-01-04T06:25:42.228Z,89.59
2019-01-04T06:26:42.245Z,89.76
2019-01-04T06:27:42.205Z,88.93
2019-01-04T06:28:42.200Z,89.28
2019-01-04T06:29:42.185Z,89.70
2019-01-04T06:30:42.175Z,89.91
2019-01-04T06:31:42.181Z,89.66
2019-01-04T06:32:42.155Z,88.97
2019-01-04T06:33:42.149Z,89.59
2019-01-04T06:34:42.143Z,89.45
2019-01-04T06:35:42.132Z,90.01
2019-01-04T06:36:42.134Z,89.70
2019-01-04T06:37:42.094Z,89.49
2019-01-04T06:38:42.088Z,89.28
2019-01-04T06:39:42.073Z,89.07
2019-01-04T06:40:42.070Z,89.70
2019-01-04T06:41:42.070Z,89.59
2019-01-04T06:42:42.041Z,88.97
2019-01-04T06:43:42.034Z,89.59
2019-01-04T06:44:42.018Z,89.56
2019-01-04T06:45:42.009Z,90.01
2019-01-04T06:46:42.010Z,89.59
2019-01-04T06:47:41.982Z,89.70
2019-01-04T06:48:41.976Z,90.18
2019-01-04T06:49:41.958Z,89.39
2019-01-04T06:50:41.962Z,89.66
2019-01-04T06:51:41.960Z,89.56
2019-01-04T06:52:41.933Z,90.18
2019-01-04T06:53:41.922Z,90.91
2019-01-04T06:54:41.911Z,91.12
2019-01-04T06:55:41.895Z,91.54
2019-01-04T06:56:41.907Z,91.75
2019-01-04T06:57:41.872Z,91.79
2019-01-04T06:58:41.874Z,91.69
2019-01-04T06:59:41.856Z,92.00
2019-01-04T07:00:41.842Z,92.21
2019-01-04T07:01:41.862Z,91.79
2019-01-04T07:02:41.815Z,92.00
2019-01-04T07:03:41.810Z,91.79
2019-01-04T07:04:41.796Z,92.10
2019-01-04T07:05:41.786Z,91.85
2019-01-04T07:06:41.777Z,91.39
2019-01-04T07:07:41.780Z,90.97
2019-01-04T07:08:41.750Z,89.93
2019-01-04T07:09:41.742Z,90.14
2019-01-04T07:10:41.742Z,90.14
2019-01-04T07:11:41.716Z,90.14
2019-01-04T07:12:41.726Z,90.03
2019-01-04T07:13:41.700Z,89.41
2019-01-04T07:14:41.687Z,89.72
2019-01-04T07:15:41.679Z,89.93
2019-01-04T07:16:41.663Z,90.45
2019-01-04T07:17:41.695Z,90.56
2019-01-04T07:18:41.642Z,91.02
2019-01-04T07:19:41.639Z,91.33
2019-01-04T07:20:41.632Z,91.96
2019-01-04T07:21:41.633Z,92.37
2019-01-04T07:22:42.031Z,92.12
2019-01-04T07:23:41.604Z,92.06
2019-01-04T07:24:41.576Z,92.65
2019-01-04T07:25:41.578Z,93.00
2019-01-04T07:26:41.567Z,93.16
2019-01-04T07:27:41.584Z,93.52
2019-01-04T07:28:41.540Z,94.15
2019-01-04T07:29:41.530Z,94.25
2019-01-04T07:30:41.508Z,94.52
2019-01-04T07:31:41.503Z,94.57
2019-01-04T07:32:41.504Z,95.19
2019-01-04T07:33:41.478Z,94.25
2019-01-04T07:34:41.466Z,94.98
2019-01-04T07:35:41.455Z,95.50
2019-01-04T07:36:41.445Z,95.50
2019-01-04T07:37:41.454Z,95.50
2019-01-04T07:38:41.428Z,95.61
2019-01-04T07:39:41.413Z,95.29
2019-01-04T07:40:41.402Z,95.40
2019-01-04T07:41:41.384Z,95.50
2019-01-04T07:42:41.403Z,95.72
2019-01-04T07:43:41.364Z,95.61
2019-01-04T07:44:41.366Z,96.38
2019-01-04T07:45:41.344Z,95.92
2019-01-04T07:46:41.327Z,96.44
2019-01-04T07:47:41.342Z,95.76
2019-01-04T07:48:41.332Z,96.80
2019-01-04T07:49:41.309Z,96.55
2019-01-04T07:50:41.297Z,95.61
2019-01-04T07:51:41.279Z,95.56
2019-01-04T07:52:41.270Z,96.13
2019-01-04T07:53:41.272Z,94.98
2019-01-04T07:54:41.244Z,95.29
2019-01-04T07:55:41.251Z,94.98
2019-01-04T07:56:41.226Z,95.50
2019-01-04T07:57:41.212Z,95.50
2019-01-04T07:58:41.220Z,95.50
2019-01-04T07:59:41.196Z,95.19
2019-01-04T08:00:41.178Z,95.29
2019-01-04T08:01:41.180Z,95.50
2019-01-04T08:02:41.158Z,95.50
2019-01-04T08:03:41.161Z,94.98
2019-01-04T08:04:41.133Z,95.40
2019-01-04T08:05:41.121Z,95.82
2019-01-04T08:06:41.121Z,95.82
2019-01-04T08:07:41.110Z,96.23
2019-01-04T08:08:41.124Z,96.76
2019-01-04T08:09:41.076Z,96.28
2019-01-04T08:10:41.071Z,96.17
2019-01-04T08:11:41.059Z,96.59
2019-01-04T08:12:41.051Z,96.80
2019-01-04T08:13:41.062Z,96.76
2019-01-04T08:14:41.036Z,96.86
2019-01-04T08:15:41.020Z,96.86
2019-01-04T08:16:41.004Z,97.17
2019-01-04T08:17:40.992Z,97.59
2019-01-04T08:18:40.980Z,97.28
2019-01-04T08:19:40.996Z,97.17
2019-01-04T08:20:40.960Z,96.97
2019-01-04T08:21:40.943Z,96.71
2019-01-04T08:22:40.944Z,96.82
2019-01-04T08:23:40.926Z,96.61
2019-01-04T08:24:40.930Z,96.92
2019-01-04T08:25:40.903Z,96.19
2019-01-04T08:26:40.890Z,96.71
2019-01-04T08:27:40.877Z,96.50
2019-01-04T08:28:40.868Z,96.50
2019-01-04T08:29:40.871Z,97.44
2019-01-04T08:30:40.852Z,97.65
2019-01-04T08:31:40.837Z,96.82
2019-01-04T08:32:40.820Z,96.92
2019-01-04T08:33:40.810Z,97.44
2019-01-04T08:34:40.858Z,97.13
2019-01-04T08:35:40.790Z,96.61
2019-01-04T08:36:40.782Z,96.82
2019-01-04T08:37:40.773Z,96.09
2019-01-04T08:38:40.754Z,96.50
2019-01-04T08:39:40.764Z,96.50
2019-01-04T08:40:40.734Z,96.92
2019-01-04T08:41:40.727Z,97.13
2019-01-04T08:42:40.713Z,97.34
2019-01-04T08:43:40.706Z,97.75
2019-01-04T08:44:40.705Z,97.55
2019-01-04T08:45:40.682Z,97.13
2019-01-04T08:46:40.666Z,97.55
2019-01-04T08:47:40.659Z,97.03
2019-01-04T08:48:40.649Z,97.34
2019-01-04T08:49:40.659Z,96.82
2019-01-04T08:50:40.620Z,96.67
2019-01-04T08:51:40.620Z,96.19
2019-01-04T08:52:40.605Z,96.36
2019-01-04T08:53:40.597Z,96.15
2019-01-04T08:54:40.616Z,95.62
2019-01-04T08:55:40.568Z,95.21
2019-01-04T08:56:40.557Z,95.42
2019-01-04T08:57:40.544Z,95.94
2019-01-04T08:58:40.540Z,95.31
2019-01-04T08:59:40.548Z,95.42
2019-01-04T09:00:40.512Z,95.42
2019-01-04T09:01:40.497Z,95.21
2019-01-04T09:02:40.492Z,95.31
2019-01-04T09:03:40.481Z,95.52
2019-01-04T09:04:40.496Z,95.83
2019-01-04T09:05:40.457Z,96.62
2019-01-04T09:06:40.470Z,95.58
2019-01-04T09:07:40.436Z,95.37
2019-01-04T09:08:40.427Z,95.68
2019-01-04T09:09:40.420Z,95.68
2019-01-04T09:10:40.422Z,95.58
2019-01-04T09:11:40.388Z,96.52
2019-01-04T09:12:40.395Z,96.31
2019-01-04T09:13:40.372Z,96.21
2019-01-04T09:14:40.353Z,95.33
2019-01-04T09:15:40.369Z,95.33
2019-01-04T09:16:40.334Z,95.23
2019-01-04T09:17:40.326Z,95.23
2019-01-04T09:18:40.318Z,95.37
2019-01-04T09:19:40.302Z,95.68
2019-01-04T09:20:40.334Z,95.48
2019-01-04T09:21:40.286Z,95.37
2019-01-04T09:22:40.272Z,95.79
2019-01-04T09:23:40.307Z,95.33
2019-01-04T09:24:40.254Z,95.54
2019-01-04T09:25:40.258Z,95.43
2019-01-04T09:26:40.230Z,95.23
2019-01-04T09:27:40.223Z,95.33
2019-01-04T09:28:40.210Z,95.23
2019-01-04T09:29:40.192Z,95.75
2019-01-04T09:30:40.214Z,95.54
2019-01-04T09:31:40.223Z,96.16
2019-01-04T09:32:40.167Z,96.16
2019-01-04T09:33:40.164Z,96.06
2019-01-04T09:34:40.136Z,96.00
2019-01-04T09:35:40.157Z,96.48
2019-01-04T09:36:40.116Z,96.48
2019-01-04T09:37:40.121Z,95.95
2019-01-04T09:38:40.094Z,96.06
2019-01-04T09:39:40.083Z,96.16
2019-01-04T09:40:40.234Z,95.95
2019-01-04T09:41:40.065Z,96.06
2019-01-04T09:42:40.053Z,96.26
2019-01-04T09:43:40.036Z,95.95
2019-01-04T09:44:40.091Z,96.79
2019-01-04T09:45:40.018Z,96.58
2019-01-04T09:46:40.026Z,96.48
2019-01-04T09:47:39.998Z,96.06
2019-01-04T09:48:39.980Z,96.26
2019-01-04T09:49:39.976Z,96.16
2019-01-04T09:50:39.990Z,96.16
2019-01-04T09:51:39.976Z,96.69
2019-01-04T09:52:39.937Z,96.16
2019-01-04T09:53:39.921Z,95.95
2019-01-04T09:54:39.914Z,95.81
2019-01-04T09:55:39.906Z,96.16
2019-01-04T09:56:39.920Z,96.06
2019-01-04T09:57:39.892Z,96.48
2019-01-04T09:58:39.870Z,96.89
2019-01-04T09:59:39.874Z,97.62
2019-01-04T10:00:39.865Z,97.31
2019-01-04T10:01:39.856Z,97.00
2019-01-04T10:02:39.832Z,96.89
2019-01-04T10:03:39.818Z,96.89
2019-01-04T10:04:39.804Z,97.16
2019-01-04T10:05:39.797Z,97.00
2019-01-04T10:06:39.858Z,97.10
2019-01-04T10:07:39.780Z,96.58
2019-01-04T10:08:44.855Z,96.48
2019-01-04T10:09:40.752Z,96.48
2019-01-04T10:10:39.736Z,96.58
2019-01-04T10:11:39.744Z,96.43
2019-01-04T10:12:39.920Z,96.53
2019-01-04T10:13:39.708Z,96.48
2019-01-04T10:14:39.692Z,96.33
2019-01-04T10:15:39.686Z,96.53
2019-01-04T10:16:39.700Z,96.26
2019-01-04T10:17:39.657Z,96.48
2019-01-04T10:18:39.661Z,96.75
2019-01-04T10:19:39.657Z,96.53
2019-01-04T10:20:39.636Z,95.95
2019-01-04T10:21:39.639Z,96.33
2019-01-04T10:22:39.612Z,96.12
2019-01-04T10:23:39.594Z,95.91
2019-01-04T10:24:39.588Z,95.66
2019-01-04T10:25:39.576Z,96.43
2019-01-04T10:26:39.586Z,96.12
2019-01-04T10:27:39.552Z,96.43
2019-01-04T10:28:39.545Z,96.53
2019-01-04T10:29:39.530Z,96.12
2019-01-04T10:30:39.523Z,96.01
2019-01-04T10:31:39.549Z,96.22
2019-01-04T10:32:39.503Z,95.91
2019-01-04T10:33:39.480Z,96.22
2019-01-04T10:34:39.474Z,96.22
2019-01-04T10:35:39.469Z,95.91
2019-01-04T10:36:39.464Z,96.33
2019-01-04T10:37:39.465Z,96.64
2019-01-04T10:38:39.429Z,96.49
2019-01-04T10:39:39.417Z,96.53
2019-01-04T10:40:39.406Z,97.37
2019-01-04T10:41:39.408Z,97.22
2019-01-04T10:42:39.437Z,96.95
2019-01-04T10:43:39.371Z,97.06
2019-01-04T10:44:39.361Z,96.95
2019-01-04T10:45:39.351Z,97.37
2019-01-04T10:46:40.663Z,97.64
2019-01-04T10:47:39.346Z,97.01
2019-01-04T10:48:39.316Z,96.59
2019-01-04T10:49:39.306Z,96.91
2019-01-04T10:50:39.300Z,96.49
2019-01-04T10:51:39.280Z,95.97
2019-01-04T10:52:39.304Z,96.39
2019-01-04T10:53:39.261Z,96.28
2019-01-04T10:54:39.285Z,96.28
2019-01-04T10:55:39.238Z,96.70
2019-01-04T10:56:39.228Z,96.08
2019-01-04T10:57:39.245Z,96.70
2019-01-04T10:58:39.212Z,96.49
2019-01-04T10:59:39.197Z,96.59
2019-01-04T11:00:39.188Z,96.39
2019-01-04T11:01:39.171Z,96.80
2019-01-04T11:02:39.184Z,97.43
2019-01-04T11:03:39.150Z,97.22
2019-01-04T11:04:39.142Z,97.01
2019-01-04T11:05:39.126Z,97.85
2019-01-04T11:06:39.112Z,97.64
2019-01-04T11:07:39.124Z,97.12
2019-01-04T11:08:39.093Z,96.86
2019-01-04T11:09:39.086Z,97.07
2019-01-04T11:10:39.075Z,96.55
2019-01-04T11:11:39.064Z,96.76
2019-01-04T11:12:39.066Z,96.24
2019-01-04T11:13:39.061Z,96.34
2019-01-04T11:14:39.070Z,96.55
2019-01-04T11:15:39.022Z,96.55
2019-01-04T11:16:39.003Z,96.14
2019-01-04T11:17:39.023Z,95.93
2019-01-04T11:18:38.999Z,95.93
2019-01-04T11:19:38.971Z,96.55
2019-01-04T11:20:38.965Z,95.72
2019-01-04T11:21:38.956Z,96.14
2019-01-04T11:22:38.942Z,96.03
2019-01-04T11:23:38.962Z,96.45
2019-01-04T11:24:38.915Z,96.55
2019-01-04T11:25:38.912Z,96.86
2019-01-04T11:26:38.898Z,97.17
2019-01-04T11:27:38.880Z,96.55
2019-01-04T11:28:38.943Z,97.07
2019-01-04T11:29:38.859Z,97.49
2019-01-04T11:30:38.850Z,97.49
2019-01-04T11:31:38.842Z,97.38
2019-01-04T11:32:38.823Z,97.38
2019-01-04T11:33:38.849Z,97.95
2019-01-04T11:34:38.878Z,98.01
2019-01-04T11:35:38.799Z,97.85
2019-01-04T11:36:38.790Z,98.05
2019-01-04T11:37:38.768Z,98.11
2019-01-04T11:38:38.780Z,97.70
2019-01-04T11:39:38.754Z,98.01
2019-01-04T11:40:38.737Z,97.49
2019-01-04T11:41:38.726Z,97.70
2019-01-04T11:42:38.727Z,97.49
2019-01-04T11:43:38.726Z,97.49
2019-01-04T11:44:38.693Z,96.86
2019-01-04T11:45:38.686Z,96.76
2019-01-04T11:46:38.680Z,96.97
2019-01-04T11:47:38.666Z,96.30
2019-01-04T11:48:38.670Z,96.34
2019-01-04T11:49:38.634Z,96.03
2019-01-04T11:50:38.661Z,96.14
2019-01-04T11:51:38.614Z,96.20
2019-01-04T11:52:38.604Z,96.20
2019-01-04T11:53:38.619Z,95.89
2019-01-04T11:54:38.777Z,95.93
2019-01-04T11:55:38.572Z,96.03
2019-01-04T11:56:38.559Z,95.99
2019-01-04T11:57:38.553Z,96.09
2019-01-04T11:58:38.570Z,95.89
2019-01-04T11:59:39.610Z,96.45
2019-01-04T12:00:38.516Z,96.76
2019-01-04T12:01:38.504Z,96.55
2019-01-04T12:02:38.490Z,96.86
2019-01-04T12:03:38.486Z,97.70
2019-01-04T12:04:38.488Z,97.34
2019-01-04T12:05:38.462Z,96.86
2019-01-04T12:06:38.452Z,97.55
2019-01-04T12:07:38.441Z,97.70
2019-01-04T12:08:38.432Z,97.49
2019-01-04T12:09:38.465Z,97.38
2019-01-04T12:10:38.406Z,97.65
2019-01-04T12:11:38.394Z,97.55
2019-01-04T12:12:38.380Z,97.49
2019-01-04T12:13:38.368Z,97.38
2019-01-04T12:14:41.389Z,97.70
2019-01-04T12:15:38.342Z,97.17
2019-01-04T12:16:38.338Z,98.11
2019-01-04T12:17:38.328Z,97.91
2019-01-04T12:18:38.316Z,98.11
2019-01-04T12:19:38.323Z,97.59
2019-01-04T12:20:38.294Z,97.49
2019-01-04T12:21:38.282Z,97.17
2019-01-04T12:22:38.272Z,97.17
2019-01-04T12:23:38.260Z,97.28
2019-01-04T12:24:38.283Z,97.49
2019-01-04T12:25:38.238Z,97.38
2019-01-04T12:26:38.226Z,97.49
2019-01-04T12:27:38.228Z,97.34
2019-01-04T12:28:38.204Z,97.80
2019-01-04T12:29:38.209Z,96.86
2019-01-04T12:30:38.187Z,96.66
2019-01-04T12:31:38.179Z,96.76
2019-01-04T12:32:38.160Z,96.97
2019-01-04T12:33:38.147Z,97.38
2019-01-04T12:34:38.164Z,97.17
2019-01-04T12:35:38.130Z,96.51
2019-01-04T12:36:38.111Z,96.61
2019-01-04T12:37:38.100Z,96.86
2019-01-04T12:38:38.089Z,96.92
2019-01-04T12:39:38.106Z,96.61
2019-01-04T12:40:38.068Z,96.66
2019-01-04T12:41:38.056Z,96.82
2019-01-04T12:42:38.050Z,97.24
2019-01-04T12:43:38.034Z,97.96
2019-01-04T12:44:38.043Z,97.28
2019-01-04T12:45:38.030Z,97.86
2019-01-04T12:46:38.003Z,97.86
2019-01-04T12:47:38.002Z,98.07
2019-01-04T12:48:37.980Z,97.96
2019-01-04T12:49:37.969Z,97.75
2019-01-04T12:50:37.976Z,98.38
2019-01-04T12:51:37.951Z,97.96
2019-01-04T12:52:37.939Z,97.44